Ana Sayfa
METAR-TAF:

METAR-TAF

Havaalanları :

Griffith, Avustralya

Enlem: 34-15-06S, Boylam: 146-04-00E, yükseklik: 134 m

Güncel hava durumu gözlemi

Rapor saat 07:00 UTC de 32 dakika önce yapıldı.
Rüzgar batı/güneybatıdan 9 kt
Sıcaklık 12°C
Nem 58%
Basınç 1025 hPa
Görüş mesafesi 10 km veya daha fazla

METAR: YGTH 240700Z AUTO 24009KT 9999 // NCD 12/04 Q1025

Saat: 17:32 (07:32 UTC)


TAF: eksik

4.000'den fazla havaalanı için hava durumu gözlemleri ve tahminleri (METAR ve TAF raporları).

Kullanılabilir istasyonlar harita üzerinde sarı ve kırmızı noktalarla gösterilir.

İstasyonun adını görmek için fareyi noktanın üzerinde gezdirin.

Sonrasında hava gözlem ve tahminlerini görmek için tıklayın.

Haritayı değiştirmek için: yaklaştırmak için siyah artı işaretli yeşil düğmeye ve uzaklaştırmak için de eksi işaretli düğmeye hızla tıklayın; bitişik haritalar için yeşil okları kullanın.


METAR-TAF: